Terminal Aerodrome Forecast
Issued by NWS Mt. Holly, NJ

Home | Current Version | Previous Version | Text Only | Print | Product List | Glossary On
Versions: 1 2 3 4 5 6 7 8 9 10 11 12 13 14 15
000
FTUS41 KPHI 202300
TAFRDG
TAF
KRDG 202337Z 2100/2124 16007KT P6SM SCT040
     FM210600 VRB02KT 4SM BR BKN025
     FM211000 VRB02KT 2SM BR BKN012
     FM211500 21005KT P6SM SCT025 BKN100
     FM211800 26006KT P6SM FEW250=

USA.gov is the U.S. government's official web portal to all federal, state and local government web resources and services.